createdAt,value
2023-02-08T00:00:03.198Z,96.1
2023-02-08T00:15:02.597Z,96.1
2023-02-08T00:30:03.202Z,96.1
2023-02-08T00:45:02.471Z,96.0
2023-02-08T01:00:02.925Z,95.9
2023-02-08T01:15:02.359Z,96.0
2023-02-08T01:30:02.760Z,95.9
2023-02-08T01:45:03.220Z,95.9
2023-02-08T02:00:02.722Z,95.8
2023-02-08T02:15:03.242Z,95.6
2023-02-08T02:30:02.561Z,95.5
2023-02-08T02:45:02.978Z,95.6
2023-02-08T03:00:02.394Z,95.4
2023-02-08T03:15:02.837Z,95.3
2023-02-08T03:30:02.298Z,95.3
2023-02-08T03:45:02.718Z,95.2
2023-02-08T04:00:03.275Z,95.5
2023-02-08T04:15:02.596Z,95.7
2023-02-08T04:30:03.018Z,95.6
2023-02-08T04:45:02.478Z,95.6
2023-02-08T05:00:02.918Z,95.5
2023-02-08T05:15:02.349Z,95.6
2023-02-08T05:30:02.785Z,95.5
2023-02-08T05:45:03.282Z,95.3
2023-02-08T06:00:02.686Z,95.2
2023-02-08T06:15:03.308Z,95.1
2023-02-08T06:30:02.523Z,95.2
2023-02-08T06:45:03.143Z,95.5
2023-02-08T07:00:02.366Z,95.3
2023-02-08T07:15:02.795Z,95.1
2023-02-08T07:30:02.304Z,95.0
2023-02-08T07:45:02.684Z,94.9
2023-02-08T08:00:03.328Z,94.8
2023-02-08T08:15:02.553Z,94.6
2023-02-08T08:30:03.010Z,94.3
2023-02-08T08:45:02.438Z,94.4
2023-02-08T09:00:02.847Z,94.2
2023-02-08T09:15:02.355Z,94.3
2023-02-08T09:30:02.711Z,91.9
2023-02-08T09:45:03.381Z,88.9
2023-02-08T10:00:02.598Z,86.3
2023-02-08T10:15:03.029Z,84.7
2023-02-08T10:30:02.437Z,83.0
2023-02-08T10:45:04.065Z,79.3
2023-02-08T11:00:02.391Z,79.1
2023-02-08T11:15:02.777Z,79.1
2023-02-08T11:30:02.393Z,75.8
2023-02-08T11:45:02.637Z,73.0
2023-02-08T12:00:03.058Z,63.9
2023-02-08T12:15:02.496Z,60.7
2023-02-08T12:30:02.943Z,55.5
2023-02-08T12:45:02.439Z,43.8
2023-02-08T13:00:02.820Z,33.4
2023-02-08T13:15:03.409Z,31.3
2023-02-08T13:30:02.696Z,33.4
2023-02-08T13:45:03.145Z,34.5
2023-02-08T14:00:02.581Z,36.3
2023-02-08T14:15:03.028Z,42.6
2023-02-08T14:30:02.483Z,48.1
2023-02-08T14:45:02.917Z,50.8
2023-02-08T15:00:02.475Z,52.5
2023-02-08T15:15:02.801Z,51.9
2023-02-08T15:30:02.460Z,52.4
2023-02-08T15:45:02.662Z,53.4
2023-02-08T16:00:03.120Z,54.4
2023-02-08T16:15:02.568Z,54.4
2023-02-08T16:30:03.101Z,55.5
2023-02-08T16:45:02.491Z,57.4
2023-02-08T17:00:02.837Z,59.1
2023-02-08T17:15:02.497Z,61.0
2023-02-08T17:30:02.707Z,63.3
2023-02-08T17:45:03.129Z,65.1
2023-02-08T18:00:02.578Z,67.8
2023-02-08T18:15:03.025Z,69.1
2023-02-08T18:30:02.517Z,69.9
2023-02-08T18:45:02.880Z,70.4
2023-02-08T19:00:02.513Z,71.1
2023-02-08T19:15:02.753Z,72.6
2023-02-08T19:30:03.190Z,74.2
2023-02-08T19:45:02.615Z,75.7
2023-02-08T20:00:06.233Z,76.0
2023-02-08T20:15:02.544Z,76.7
2023-02-08T20:30:02.925Z,80.3
2023-02-08T20:45:02.573Z,81.3
2023-02-08T21:00:02.780Z,81.5
2023-02-08T21:15:03.297Z,82.1
2023-02-08T21:30:02.630Z,83.9
2023-02-08T21:45:03.096Z,83.6
2023-02-08T22:00:02.538Z,84.1
2023-02-08T22:15:02.982Z,84.4
2023-02-08T22:30:02.556Z,85.0
2023-02-08T22:45:02.823Z,84.9
2023-02-08T23:00:02.431Z,84.6
2023-02-08T23:30:03.147Z,84.8
2023-02-08T23:45:02.594Z,85.2
